Time;durP1;ratioP1;P1;durP2;ratioP2;P2;SDS_P1;SDS_P2;PMS_P1;PMS_P2;Temp;Humidity;BMP_temperature;BMP_pressure;BME280_temperature;BME280_humidity;BME280_pressure;Samples;Min_cycle;Max_cycle;Signal;HPM_P1;HPM_P2
2022/11/26 00:02:34;;;;;;;70.30;26.00;;;;;;;1.22;97.55;100553.46;105703;1291;67625;-79
2022/11/26 00:05:23;;;;;;;64.30;24.60;;;;;;;1.24;97.37;100558.64;105163;1308;72680;-78
2022/11/26 00:08:21;;;;;;;56.30;23.50;;;;;;;1.27;97.40;100561.69;105185;1302;58726;-78
2022/11/26 00:11:14;;;;;;;60.20;22.80;;;;;;;1.29;96.96;100562.52;104954;1304;58380;-77
2022/11/26 00:14:02;;;;;;;61.70;23.70;;;;;;;1.29;96.82;100566.19;105040;1303;71658;-78
2022/11/26 00:16:49;;;;;;;61.10;24.20;;;;;;;1.27;96.73;100564.83;105150;1301;67565;-78
2022/11/26 00:19:39;;;;;;;46.40;18.30;;;;;;;1.26;96.65;100566.62;105176;1307;71060;-78
2022/11/26 00:22:34;;;;;;;61.70;24.40;;;;;;;1.25;96.79;100565.97;105243;1301;57534;-78
2022/11/26 00:25:26;;;;;;;67.50;25.80;;;;;;;1.23;96.70;100569.17;105038;1304;60037;-78
2022/11/26 00:28:29;;;;;;;73.10;26.90;;;;;;;1.26;96.82;100569.60;105250;1301;72844;-77
2022/11/26 00:31:17;;;;;;;64.80;24.10;;;;;;;1.29;96.69;100570.05;105147;1300;67514;-79
2022/11/26 00:34:05;;;;;;;62.50;24.90;;;;;;;1.31;96.82;100569.60;105166;1301;71230;-78
2022/11/26 00:36:53;;;;;;;62.60;25.50;;;;;;;1.33;96.68;100572.17;105278;1307;58998;-78
2022/11/26 00:39:40;;;;;;;61.60;23.90;;;;;;;1.34;96.71;100573.54;105269;1302;60106;-78
2022/11/26 00:42:29;;;;;;;62.30;24.80;;;;;;;1.35;96.87;100572.09;105627;1293;71444;-78
2022/11/26 00:45:24;;;;;;;57.10;22.50;;;;;;;1.36;96.41;100578.21;105886;1291;68653;-77
2022/11/26 00:48:14;;;;;;;57.40;22.40;;;;;;;1.33;96.09;100579.70;105609;1292;71080;-78
2022/11/26 00:51:02;;;;;;;63.60;25.40;;;;;;;1.31;96.45;100583.95;105890;1287;57262;-77
2022/11/26 00:53:53;;;;;;;62.90;25.30;;;;;;;1.31;96.42;100585.17;105857;1291;60394;-78
2022/11/26 00:56:40;;;;;;;63.70;25.60;;;;;;;1.32;96.61;100582.67;105894;1284;71650;-78
2022/11/26 00:59:28;;;;;;;58.90;24.50;;;;;;;1.34;96.39;100580.02;105749;1287;66589;-77
2022/11/26 01:02:15;;;;;;;60.60;24.30;;;;;;;1.36;96.36;100578.73;105648;1293;72564;-77
2022/11/26 01:05:04;;;;;;;61.70;25.70;;;;;;;1.37;96.48;100576.23;105885;1291;57256;-78
2022/11/26 01:07:52;;;;;;;58.10;22.70;;;;;;;1.39;96.42;100578.48;105640;1301;59055;-78
2022/11/26 01:10:40;;;;;;;48.90;19.10;;;;;;;1.41;96.44;100576.14;105752;1294;72977;-78
2022/11/26 01:13:29;;;;;;;52.60;21.70;;;;;;;1.38;96.15;100576.73;105871;1286;68999;-77
2022/11/26 01:16:22;;;;;;;53.10;21.20;;;;;;;1.35;96.03;100577.02;105730;1292;73563;-76
2022/11/26 01:19:13;;;;;;;58.80;22.20;;;;;;;1.30;95.80;100575.40;105862;1292;58636;-77
2022/11/26 01:22:01;;;;;;;59.70;24.10;;;;;;;1.28;95.84;100581.79;105757;1294;60483;-77
2022/11/26 01:24:49;;;;;;;59.30;24.40;;;;;;;1.26;96.18;100582.02;105852;1292;72982;-76
2022/11/26 01:27:36;;;;;;;63.20;24.70;;;;;;;1.29;96.31;100583.52;105897;1292;68972;-77
2022/11/26 01:30:30;;;;;;;51.90;22.60;;;;;;;1.31;96.15;100585.87;105875;1293;72342;-78
2022/11/26 01:33:17;;;;;;;48.90;22.70;;;;;;;1.31;95.82;100591.29;105865;1284;58175;-78
2022/11/26 01:36:24;;;;;;;50.10;21.10;;;;;;;1.34;96.29;100596.27;105746;1294;61190;-77
2022/11/26 01:39:18;;;;;;;44.10;18.90;;;;;;;1.31;96.21;100594.77;105754;1295;74231;-78
2022/11/26 01:42:36;;;;;;;49.90;21.30;;;;;;;1.31;96.20;100590.77;105741;1293;68713;-76
2022/11/26 01:45:24;;;;;;;51.50;19.50;;;;;;;1.31;96.11;100594.42;105865;1291;74036;-79
2022/11/26 01:48:28;;;;;;;50.70;20.70;;;;;;;1.31;96.16;100595.67;105756;1288;57321;-79
2022/11/26 01:51:25;;;;;;;57.70;23.10;;;;;;;1.29;95.99;100600.10;105767;1291;57931;-78
2022/11/26 01:54:14;;;;;;;54.70;23.20;;;;;;;1.27;96.06;100600.84;105774;1295;70372;-78
2022/11/26 01:57:18;;;;;;;53.50;22.20;;;;;;;1.28;96.05;100599.61;105881;1292;68650;-78
2022/11/26 02:00:07;;;;;;;53.50;22.50;;;;;;;1.28;95.98;100602.59;105765;1288;72646;-78
2022/11/26 02:02:59;;;;;;;56.10;24.10;;;;;;;1.26;96.32;100604.38;105842;1292;58780;-77
2022/11/26 02:05:57;;;;;;;50.70;21.00;;;;;;;1.29;96.31;100606.41;105874;1293;60381;-76
2022/11/26 02:08:45;;;;;;;43.80;18.60;;;;;;;1.31;96.21;100603.02;105781;1288;71424;-77
2022/11/26 02:11:33;;;;;;;50.30;20.90;;;;;;;1.30;96.04;100601.13;105713;1293;66842;-78
2022/11/26 02:14:25;;;;;;;45.30;19.10;;;;;;;1.30;96.16;100606.19;105879;1285;70981;-78
2022/11/26 02:17:40;;;;;;;39.70;16.70;;;;;;;1.29;96.20;100602.89;105020;1295;1002108;-76
2022/11/26 02:21:03;;;;;;;40.50;18.40;;;;;;;1.27;96.23;100603.13;105891;1292;59179;-77
2022/11/26 02:24:04;;;;;;;48.30;19.20;;;;;;;1.25;96.12;100605.98;105746;1288;74285;-77
2022/11/26 02:27:14;;;;;;;38.80;14.60;;;;;;;1.24;96.22;100607.40;105675;1292;68178;-77
2022/11/26 02:30:08;;;;;;;43.40;18.40;;;;;;;1.25;96.23;100604.43;105710;1292;72293;-77
2022/11/26 02:33:10;;;;;;;43.10;18.80;;;;;;;1.27;96.42;100606.11;105730;1295;59658;-78
2022/11/26 02:36:18;;;;;;;44.70;18.60;;;;;;;1.29;96.19;100606.40;105875;1298;60083;-76
2022/11/26 02:39:15;;;;;;;41.30;16.60;;;;;;;1.31;96.14;100610.17;105691;1293;72277;-77
2022/11/26 02:42:20;;;;;;;37.10;15.50;;;;;;;1.33;96.40;100610.11;105788;1288;67804;-77
2022/11/26 02:45:17;;;;;;;33.10;14.60;;;;;;;1.33;96.35;100608.18;105703;1298;72495;-77
2022/11/26 02:48:12;;;;;;;41.80;16.60;;;;;;;1.32;96.12;100611.00;105750;1300;57141;-77
2022/11/26 02:51:16;;;;;;;35.30;14.40;;;;;;;1.32;96.41;100610.30;105780;1292;60340;-77
2022/11/26 02:54:07;;;;;;;36.30;16.30;;;;;;;1.31;96.26;100609.29;105745;1291;72997;-76
2022/11/26 02:56:57;;;;;;;41.40;18.90;;;;;;;1.30;96.17;100606.02;105864;1292;67671;-78
2022/11/26 02:59:45;;;;;;;40.50;19.00;;;;;;;1.28;96.13;100611.84;105735;1295;71443;-76
2022/11/26 03:02:47;;;;;;;39.80;18.00;;;;;;;1.29;96.27;100612.00;105755;1292;57255;-78
2022/11/26 03:05:38;;;;;;;41.10;17.40;;;;;;;1.30;96.27;100613.54;105718;1293;59103;-77
2022/11/26 03:08:26;;;;;;;39.10;17.50;;;;;;;1.32;96.41;100616.24;105763;1292;72907;-77
2022/11/26 03:11:14;;;;;;;37.20;17.00;;;;;;;1.34;96.39;100619.17;105879;1293;69006;-77
2022/11/26 03:14:02;;;;;;;38.00;17.00;;;;;;;1.38;96.46;100624.65;105891;1292;71168;-77
2022/11/26 03:16:49;;;;;;;35.60;15.50;;;;;;;1.39;96.25;100628.98;105746;1291;57181;-77
2022/11/26 03:19:37;;;;;;;35.40;15.70;;;;;;;1.39;96.22;100633.89;105909;1287;59352;-77
2022/11/26 03:22:24;;;;;;;32.70;14.20;;;;;;;1.37;96.13;100639.02;105712;1292;72776;-77
2022/11/26 03:25:12;;;;;;;35.40;15.10;;;;;;;1.35;96.06;100641.00;105871;1292;66728;-78
2022/11/26 03:28:01;;;;;;;36.80;16.30;;;;;;;1.33;95.99;100640.89;105720;1294;72809;-78
2022/11/26 03:30:50;;;;;;;35.20;16.70;;;;;;;1.32;96.15;100642.11;105846;1294;58518;-78
2022/11/26 03:33:38;;;;;;;36.60;15.60;;;;;;;1.33;96.14;100643.52;105742;1295;59362;-78
2022/11/26 03:36:26;;;;;;;34.90;15.80;;;;;;;1.35;96.22;100647.83;105873;1293;74031;-78
2022/11/26 03:39:13;;;;;;;35.60;15.50;;;;;;;1.36;96.13;100647.77;104404;1292;1002657;-77
2022/11/26 03:42:01;;;;;;;34.80;14.90;;;;;;;1.41;96.12;100651.14;105859;1292;71858;-76
2022/11/26 03:44:49;;;;;;;30.80;14.50;;;;;;;1.43;95.94;100651.80;105847;1294;58316;-78
2022/11/26 03:47:37;;;;;;;32.70;15.00;;;;;;;1.42;95.47;100652.51;105898;1291;58865;-77
2022/11/26 03:50:24;;;;;;;31.40;13.30;;;;;;;1.40;95.42;100655.21;105751;1295;71804;-78
2022/11/26 03:53:12;;;;;;;32.90;14.30;;;;;;;1.35;95.22;100655.86;105848;1287;67766;-77
2022/11/26 03:55:59;;;;;;;34.40;16.00;;;;;;;1.33;95.38;100657.16;105711;1292;72814;-79
2022/11/26 03:58:47;;;;;;;34.60;15.30;;;;;;;1.33;95.35;100653.99;105870;1288;58641;-77
2022/11/26 04:01:34;;;;;;;33.80;15.40;;;;;;;1.33;95.48;100654.34;105903;1292;58730;-78
2022/11/26 04:04:22;;;;;;;32.30;14.90;;;;;;;1.35;95.47;100654.80;105899;1295;71552;-77
2022/11/26 04:07:10;;;;;;;30.40;13.90;;;;;;;1.36;95.32;100653.75;105883;1287;68009;-77
2022/11/26 04:09:58;;;;;;;30.50;14.60;;;;;;;1.36;95.47;100656.89;105714;1292;70962;-78
2022/11/26 04:12:45;;;;;;;32.10;14.20;;;;;;;1.36;95.43;100659.50;105754;1290;57454;-77
2022/11/26 04:15:34;;;;;;;34.40;14.00;;;;;;;1.39;95.78;100660.67;105878;1291;60346;-78
2022/11/26 04:18:21;;;;;;;26.60;13.30;;;;;;;1.40;95.44;100663.94;105759;1288;72877;-79
2022/11/26 04:21:09;;;;;;;28.70;12.70;;;;;;;1.40;95.49;100665.35;105728;1294;67775;-81
2022/11/26 04:23:56;;;;;;;31.30;14.70;;;;;;;1.40;95.84;100666.39;105684;1304;73501;-79
2022/11/26 04:26:44;;;;;;;30.90;14.10;;;;;;;1.41;95.72;100673.89;105605;1298;58683;-80
2022/11/26 04:29:32;;;;;;;34.20;14.90;;;;;;;1.40;95.57;100676.17;105748;1292;58867;-79
2022/11/26 04:32:20;;;;;;;33.60;14.10;;;;;;;1.40;95.51;100678.98;105788;1295;73300;-80
2022/11/26 04:35:08;;;;;;;30.70;14.10;;;;;;;1.42;95.53;100680.30;105641;1288;66456;-78
2022/11/26 04:37:56;;;;;;;32.10;14.00;;;;;;;1.42;95.33;100679.80;105721;1292;72599;-78
2022/11/26 04:40:44;;;;;;;28.50;12.70;;;;;;;1.43;95.46;100686.23;105705;1298;57250;-80
2022/11/26 04:43:32;;;;;;;30.30;14.10;;;;;;;1.42;95.41;100688.55;105701;1300;60307;-80
2022/11/26 04:46:20;;;;;;;27.50;13.40;;;;;;;1.41;95.33;100687.52;105717;1300;71362;-78
2022/11/26 04:49:08;;;;;;;27.40;13.70;;;;;;;1.41;95.75;100685.25;105878;1292;69005;-77
2022/11/26 04:51:55;;;;;;;32.70;13.40;;;;;;;1.41;95.89;100684.91;105863;1295;71183;-78
2022/11/26 04:54:43;;;;;;;29.80;13.80;;;;;;;1.40;95.71;100690.52;105720;1287;59635;-78
2022/11/26 04:57:31;;;;;;;29.60;13.70;;;;;;;1.40;95.51;100692.61;105689;1298;60198;-79
2022/11/26 05:00:19;;;;;;;29.40;12.70;;;;;;;1.42;95.67;100695.52;105827;1287;72726;-79
2022/11/26 05:03:06;;;;;;;26.50;13.40;;;;;;;1.42;95.52;100695.38;105850;1292;66448;-77
2022/11/26 05:05:55;;;;;;;27.90;12.90;;;;;;;1.44;95.63;100698.30;105844;1290;72366;-79
2022/11/26 05:08:42;;;;;;;30.30;13.20;;;;;;;1.47;95.83;100702.02;105845;1292;57188;-78
2022/11/26 05:11:30;;;;;;;26.10;12.50;;;;;;;1.50;95.83;100699.66;105883;1292;58631;-79
2022/11/26 05:14:18;;;;;;;26.00;12.20;;;;;;;1.50;95.61;100702.45;104975;1294;1002084;-79
2022/11/26 05:17:05;;;;;;;22.70;10.80;;;;;;;1.49;95.32;100700.03;105854;1293;67578;-78
2022/11/26 05:19:53;;;;;;;26.10;12.70;;;;;;;1.46;95.27;100705.05;105843;1284;71376;-79
2022/11/26 05:22:42;;;;;;;27.80;12.60;;;;;;;1.43;95.33;100702.69;105848;1292;58457;-78
2022/11/26 05:25:29;;;;;;;27.30;12.60;;;;;;;1.42;95.65;100708.64;105877;1287;60431;-79
2022/11/26 05:28:17;;;;;;;28.40;12.20;;;;;;;1.43;95.43;100714.23;105842;1286;72979;-79
2022/11/26 05:31:05;;;;;;;25.60;12.80;;;;;;;1.44;95.56;100718.21;105851;1292;67699;-77
2022/11/26 05:33:52;;;;;;;28.20;13.30;;;;;;;1.44;95.34;100719.09;105837;1292;71287;-80
2022/11/26 05:36:39;;;;;;;29.40;13.90;;;;;;;1.43;95.41;100719.64;105670;1291;57409;-80
2022/11/26 05:39:27;;;;;;;26.40;12.30;;;;;;;1.43;95.71;100722.09;105860;1292;58623;-78
2022/11/26 05:42:15;;;;;;;25.00;12.20;;;;;;;1.43;95.39;100720.52;105869;1292;73044;-78
2022/11/26 05:45:04;;;;;;;26.50;12.20;;;;;;;1.44;95.81;100722.06;105853;1292;69499;-78
2022/11/26 05:47:52;;;;;;;25.60;13.20;;;;;;;1.45;95.97;100722.02;105504;1294;288238;-78
2022/11/26 05:50:40;;;;;;;23.60;12.90;;;;;;;1.47;95.82;100722.85;105826;1292;59822;-78
2022/11/26 05:53:27;;;;;;;26.60;13.00;;;;;;;1.49;95.71;100725.23;105836;1292;61166;-78
2022/11/26 05:56:15;;;;;;;23.80;12.10;;;;;;;1.50;95.62;100729.91;105864;1292;74052;-79
2022/11/26 05:59:03;;;;;;;25.90;11.90;;;;;;;1.53;95.49;100735.59;105838;1292;66681;-79
2022/11/26 06:01:50;;;;;;;26.10;11.00;;;;;;;1.56;95.36;100740.60;105838;1294;71370;-79
2022/11/26 06:04:38;;;;;;;22.80;11.10;;;;;;;1.55;94.99;100742.72;105896;1292;57424;-79
2022/11/26 06:07:26;;;;;;;22.00;9.80;;;;;;;1.54;95.26;100749.03;105928;1288;58800;-79
2022/11/26 06:10:13;;;;;;;22.80;10.80;;;;;;;1.54;95.06;100750.61;105852;1285;73807;-79
2022/11/26 06:13:02;;;;;;;19.90;9.60;;;;;;;1.52;94.99;100753.98;105838;1292;65624;-78
2022/11/26 06:15:50;;;;;;;20.40;9.80;;;;;;;1.50;95.16;100754.92;105852;1287;70801;-79
2022/11/26 06:18:38;;;;;;;22.00;10.50;;;;;;;1.47;94.90;100759.73;105710;1288;57273;-78
2022/11/26 06:21:26;;;;;;;25.10;11.30;;;;;;;1.45;95.05;100763.64;105825;1299;60445;-77
2022/11/26 06:24:14;;;;;;;26.10;11.60;;;;;;;1.45;95.15;100768.90;105836;1291;72747;-78
2022/11/26 06:27:01;;;;;;;28.30;12.70;;;;;;;1.44;95.15;100768.23;105117;1285;1002129;-78
2022/11/26 06:29:49;;;;;;;28.80;12.30;;;;;;;1.45;95.15;100769.78;105714;1288;72669;-78
2022/11/26 06:32:37;;;;;;;26.70;12.30;;;;;;;1.45;95.26;100771.86;105852;1292;57212;-77
2022/11/26 06:35:25;;;;;;;25.20;11.20;;;;;;;1.45;95.25;100774.14;105853;1291;58689;-79
2022/11/26 06:38:12;;;;;;;27.40;13.30;;;;;;;1.48;95.26;100779.13;105827;1292;73821;-79
2022/11/26 06:41:06;;;;;;;30.90;13.90;;;;;;;1.50;95.41;100778.38;105720;1301;69235;-77
2022/11/26 06:43:54;;;;;;;32.00;14.40;;;;;;;1.50;95.14;100784.13;105813;1291;72406;-80
2022/11/26 06:46:41;;;;;;;26.60;12.70;;;;;;;1.51;95.34;100786.90;105711;1288;57134;-77
2022/11/26 06:49:28;;;;;;;27.80;12.70;;;;;;;1.52;95.21;100787.95;105855;1291;58143;-79
2022/11/26 06:52:16;;;;;;;35.10;17.00;;;;;;;1.50;95.08;100786.77;105713;1284;71778;-79
2022/11/26 06:55:05;;;;;;;34.40;14.90;;;;;;;1.52;95.18;100786.71;105685;1292;66697;-77
2022/11/26 06:57:52;;;;;;;35.10;14.30;;;;;;;1.53;94.98;100790.02;105828;1292;72328;-78
2022/11/26 07:00:41;;;;;;;32.10;14.20;;;;;;;1.56;94.68;100796.58;105819;1292;57744;-79
2022/11/26 07:03:28;;;;;;;31.00;15.00;;;;;;;1.59;94.80;100797.33;105870;1284;58752;-79
2022/11/26 07:06:31;;;;;;;34.10;15.00;;;;;;;1.62;94.37;100799.02;105705;1292;72111;-79
2022/11/26 07:09:19;;;;;;;29.10;13.80;;;;;;;1.64;94.26;100803.85;105853;1292;67664;-79
2022/11/26 07:12:07;;;;;;;30.90;14.20;;;;;;;1.68;94.51;100806.71;105851;1285;72415;-78
2022/11/26 07:14:54;;;;;;;27.40;13.60;;;;;;;1.72;94.30;100808.36;105716;1295;58027;-79
2022/11/26 07:17:42;;;;;;;25.40;11.30;;;;;;;1.74;94.22;100810.58;105756;1287;59106;-77
2022/11/26 07:20:29;;;;;;;28.40;14.20;;;;;;;1.75;94.15;100812.11;105837;1284;73908;-78
2022/11/26 07:23:17;;;;;;;32.60;14.80;;;;;;;1.74;93.67;100813.73;105720;1300;67777;-79
2022/11/26 07:26:06;;;;;;;34.20;15.40;;;;;;;1.72;93.72;100810.45;105873;1292;72448;-78
2022/11/26 07:28:54;;;;;;;31.00;15.30;;;;;;;1.72;93.56;100816.41;106011;1285;57342;-78
2022/11/26 07:31:42;;;;;;;30.70;15.80;;;;;;;1.75;93.75;100818.25;105974;1295;58786;-78
2022/11/26 07:34:30;;;;;;;33.40;14.80;;;;;;;1.79;93.81;100819.88;105969;1278;70529;-79
2022/11/26 07:37:18;;;;;;;29.10;13.90;;;;;;;1.83;94.29;100820.98;105941;1292;67015;-80
2022/11/26 07:40:07;;;;;;;30.60;14.80;;;;;;;1.88;94.20;100825.57;105767;1292;72448;-79
2022/11/26 07:42:55;;;;;;;30.70;14.80;;;;;;;1.89;93.85;100825.71;105738;1292;57244;-79
2022/11/26 07:45:43;;;;;;;31.00;14.30;;;;;;;1.89;93.64;100825.19;104977;1289;1002392;-79
2022/11/26 07:48:32;;;;;;;36.00;16.50;;;;;;;1.88;93.52;100827.14;105888;1284;74091;-80
2022/11/26 07:51:26;;;;;;;34.00;16.60;;;;;;;1.87;93.53;100829.10;105581;1294;68720;-81
2022/11/26 07:54:15;;;;;;;30.80;15.90;;;;;;;1.88;93.55;100835.72;105602;1290;73586;-79
2022/11/26 07:57:03;;;;;;;32.90;16.20;;;;;;;1.89;93.60;100837.27;105835;1299;58797;-78
2022/11/26 07:59:51;;;;;;;33.00;15.00;;;;;;;1.94;93.81;100840.80;105842;1292;59985;-78
2022/11/26 08:02:38;;;;;;;31.30;15.60;;;;;;;2.00;93.90;100842.72;105873;1290;74085;-77
2022/11/26 08:05:26;;;;;;;37.70;18.70;;;;;;;2.06;93.65;100845.52;105844;1285;66572;-78
2022/11/26 08:08:14;;;;;;;34.90;16.50;;;;;;;2.19;95.22;100847.91;105862;1292;71206;-78
2022/11/26 08:11:04;;;;;;;30.20;14.10;;;;;;;2.34;94.49;100853.23;105857;1292;57237;-78
2022/11/26 08:13:56;;;;;;;28.80;13.70;;;;;;;2.36;93.45;100855.45;105862;1292;61176;-78
2022/11/26 08:16:44;;;;;;;28.00;15.00;;;;;;;2.35;93.18;100857.94;105764;1295;71697;-78
2022/11/26 08:19:32;;;;;;;26.30;13.20;;;;;;;2.36;92.97;100859.50;105887;1292;66407;-79
2022/11/26 08:22:19;;;;;;;30.50;15.00;;;;;;;2.35;92.89;100858.80;105804;1292;72444;-79
2022/11/26 08:25:08;;;;;;;30.10;15.60;;;;;;;2.37;92.85;100864.88;105672;1300;57389;-78
2022/11/26 08:27:56;;;;;;;32.10;16.60;;;;;;;2.41;92.84;100866.71;105813;1292;61171;-80
2022/11/26 08:30:45;;;;;;;29.80;16.30;;;;;;;2.41;92.57;100866.50;105858;1292;72812;-78
2022/11/26 08:33:33;;;;;;;34.70;17.60;;;;;;;2.47;92.77;100873.51;105861;1286;66258;-79
2022/11/26 08:36:22;;;;;;;31.30;16.10;;;;;;;2.52;92.65;100875.98;105841;1286;73749;-81
2022/11/26 08:39:16;;;;;;;30.20;15.80;;;;;;;2.53;92.33;100878.21;105852;1292;57100;-79
2022/11/26 08:42:04;;;;;;;34.00;17.10;;;;;;;2.54;92.49;100878.70;105876;1291;59069;-78
2022/11/26 08:44:53;;;;;;;33.20;16.40;;;;;;;2.54;92.49;100879.41;105858;1292;72946;-80
2022/11/26 08:47:41;;;;;;;30.40;15.30;;;;;;;2.52;92.17;100881.59;105886;1284;66186;-78
2022/11/26 08:50:28;;;;;;;33.80;16.90;;;;;;;2.49;92.38;100881.86;105866;1293;73664;-78
2022/11/26 08:53:16;;;;;;;36.80;17.20;;;;;;;2.50;92.54;100886.21;105606;1298;58726;-79
2022/11/26 08:56:10;;;;;;;36.40;18.60;;;;;;;2.54;92.52;100889.94;105776;1288;58670;-79
2022/11/26 08:58:59;;;;;;;38.50;19.20;;;;;;;2.58;92.63;100892.10;105742;1291;72781;-77
2022/11/26 09:01:47;;;;;;;46.60;23.00;;;;;;;2.62;92.47;100896.17;105857;1292;67709;-78
2022/11/26 09:04:35;;;;;;;31.90;16.50;;;;;;;2.64;92.30;100897.50;105854;1291;71548;-80
2022/11/26 09:07:23;;;;;;;30.70;15.50;;;;;;;2.65;92.16;100898.52;105866;1293;57161;-79
2022/11/26 09:10:12;;;;;;;31.40;14.70;;;;;;;2.68;91.95;100900.86;105862;1287;60314;-79
2022/11/26 09:12:59;;;;;;;25.70;13.00;;;;;;;2.74;92.08;100898.95;105745;1290;74112;-80
2022/11/26 09:15:49;;;;;;;35.70;15.50;;;;;;;2.77;91.75;100900.80;105875;1292;67802;-79
2022/11/26 09:18:38;;;;;;;28.80;13.30;;;;;;;2.77;91.92;100898.84;105859;1292;71874;-79
2022/11/26 09:21:26;;;;;;;26.20;12.80;;;;;;;2.77;92.20;100902.35;105861;1287;57658;-79
2022/11/26 09:24:16;;;;;;;31.30;15.20;;;;;;;2.78;92.14;100903.21;105882;1291;60229;-78
2022/11/26 09:27:03;;;;;;;31.10;15.20;;;;;;;2.81;92.40;100902.78;105715;1291;74102;-79
2022/11/26 09:29:55;;;;;;;29.30;14.30;;;;;;;2.82;92.09;100902.20;105757;1292;66502;-78
2022/11/26 09:32:43;;;;;;;27.90;14.10;;;;;;;2.81;91.59;100901.70;105734;1295;71725;-79
2022/11/26 09:35:31;;;;;;;29.80;13.10;;;;;;;2.81;91.97;100901.34;105808;1295;58058;-79
2022/11/26 09:38:19;;;;;;;28.30;14.90;;;;;;;2.88;91.93;100906.73;105725;1294;60109;-77
2022/11/26 09:41:53;;;;;;;25.60;13.30;;;;;;;2.95;91.46;100910.21;105707;1291;74829;-79
2022/11/26 09:45:23;;;;;;;34.00;16.30;;;;;;;2.98;91.26;100914.32;105705;1293;67834;-80
2022/11/26 09:48:17;;;;;;;29.80;14.20;;;;;;;3.01;90.79;100921.39;105226;1299;72378;-79
2022/11/26 09:51:16;;;;;;;30.70;16.60;;;;;;;3.08;90.68;100920.83;105207;1301;58081;-79
2022/11/26 09:54:05;;;;;;;34.10;15.60;;;;;;;3.24;90.29;100918.17;105179;1296;59313;-79
2022/11/26 09:57:16;;;;;;;29.20;16.10;;;;;;;3.46;90.26;100923.04;105197;1301;73528;-80
2022/11/26 10:00:14;;;;;;;31.10;14.20;;;;;;;3.63;89.17;100921.94;105270;1300;67709;-77
2022/11/26 10:03:17;;;;;;;32.10;15.10;;;;;;;3.66;88.72;100922.20;105032;1295;71592;-79
2022/11/26 10:06:26;;;;;;;32.30;15.30;;;;;;;3.65;88.07;100926.79;105153;1300;58124;-79
2022/11/26 10:09:33;;;;;;;32.20;16.60;;;;;;;3.62;88.02;100925.66;105221;1294;61436;-76
2022/11/26 10:12:46;;;;;;;28.80;14.80;;;;;;;3.57;86.83;100928.99;105088;1302;74822;-74
2022/11/26 10:16:19;;;;;;;30.40;14.30;;;;;;;3.52;87.61;100932.33;105128;1308;67730;-74
2022/11/26 10:19:34;;;;;;;44.10;19.80;;;;;;;3.46;87.54;100927.09;105123;1300;72389;-76
2022/11/26 10:22:36;;;;;;;34.70;16.30;;;;;;;3.44;87.31;100928.39;105455;1288;58440;-75
2022/11/26 10:25:32;;;;;;;74.00;32.80;;;;;;;3.41;87.29;100923.41;105763;1286;58914;-75
2022/11/26 10:28:32;;;;;;;53.00;23.40;;;;;;;3.42;87.53;100923.72;105747;1291;74074;-76
2022/11/26 10:31:30;;;;;;;36.30;17.70;;;;;;;3.47;87.53;100926.88;105717;1295;67807;-78
2022/11/26 10:34:27;;;;;;;29.90;15.40;;;;;;;3.56;87.45;100925.88;105731;1295;72565;-75
2022/11/26 10:37:22;;;;;;;25.40;13.00;;;;;;;3.68;87.39;100920.73;105771;1286;58122;-73
2022/11/26 10:40:24;;;;;;;26.30;12.80;;;;;;;3.79;86.56;100920.31;105736;1294;58946;-73
2022/11/26 10:43:23;;;;;;;25.20;12.20;;;;;;;3.85;85.80;100926.61;105707;1294;73815;-75
2022/11/26 10:46:30;;;;;;;27.10;13.30;;;;;;;3.82;84.91;100929.70;105681;1294;69057;-75
2022/11/26 10:49:29;;;;;;;28.20;13.70;;;;;;;3.80;85.40;100934.35;105712;1295;72216;-76
2022/11/26 10:52:29;;;;;;;31.60;14.60;;;;;;;3.79;86.35;100933.65;105549;1298;58559;-75
2022/11/26 10:55:26;;;;;;;24.30;11.20;;;;;;;3.83;86.10;100933.70;105787;1295;60050;-75
2022/11/26 10:58:19;;;;;;;28.10;13.40;;;;;;;3.86;85.65;100932.73;105760;1293;73736;-76
2022/11/26 11:01:12;;;;;;;26.60;11.80;;;;;;;3.91;86.51;100938.16;105758;1293;67522;-76
2022/11/26 11:04:01;;;;;;;25.70;13.30;;;;;;;3.89;85.93;100944.02;105709;1295;74182;-76
2022/11/26 11:06:57;;;;;;;29.60;14.10;;;;;;;3.83;85.98;100943.52;105698;1295;58088;-76
2022/11/26 11:09:44;;;;;;;34.80;16.80;;;;;;;3.80;86.34;100940.48;105666;1295;60478;-75
2022/11/26 11:12:32;;;;;;;25.20;14.30;;;;;;;3.78;86.01;100943.19;105698;1287;74402;-75
2022/11/26 11:15:25;;;;;;;27.10;13.80;;;;;;;3.73;86.10;100942.11;105709;1293;68643;-76
2022/11/26 11:18:22;;;;;;;23.80;11.60;;;;;;;3.69;85.92;100946.27;105716;1295;72450;-78
2022/11/26 11:21:17;;;;;;;28.80;10.20;;;;;;;3.60;85.37;100952.42;105693;1287;58011;-79
2022/11/26 11:24:14;;;;;;;29.00;14.50;;;;;;;3.51;85.58;100953.08;105728;1288;60053;-79
2022/11/26 11:27:02;;;;;;;32.60;13.40;;;;;;;3.44;85.89;100956.64;105769;1284;72986;-78
2022/11/26 11:29:51;;;;;;;31.10;14.50;;;;;;;3.43;86.55;100957.20;105682;1295;67620;-79
2022/11/26 11:32:39;;;;;;;29.30;12.90;;;;;;;3.45;86.61;100958.90;105702;1294;70760;-77
2022/11/26 11:35:30;;;;;;;26.80;12.70;;;;;;;3.45;86.97;100962.56;105688;1302;58509;-79
2022/11/26 11:38:24;;;;;;;24.00;12.80;;;;;;;3.46;86.84;100965.71;105653;1293;60385;-79
2022/11/26 11:41:45;;;;;;;29.70;13.00;;;;;;;3.39;87.17;100962.95;105573;1296;73065;-78
2022/11/26 11:44:45;;;;;;;31.20;15.00;;;;;;;3.33;87.69;100963.33;105728;1295;66360;-79
2022/11/26 11:47:42;;;;;;;30.50;14.80;;;;;;;3.31;87.87;100966.20;105729;1295;73510;-76
2022/11/26 11:50:42;;;;;;;29.90;13.30;;;;;;;3.30;88.65;100969.56;105787;1288;58052;-78
2022/11/26 11:53:36;;;;;;;26.00;9.70;;;;;;;3.30;88.96;100969.74;105704;1295;58961;-79
2022/11/26 11:56:42;;;;;;;29.40;12.00;;;;;;;3.30;89.27;100968.52;105740;1294;72687;-78
2022/11/26 12:00:11;;;;;;;26.30;11.90;;;;;;;3.29;89.50;100965.56;105770;1280;66391;-78
2022/11/26 12:03:55;;;;;;;29.20;13.60;;;;;;;3.30;89.67;100964.10;105613;1301;71248;-81
2022/11/26 12:06:59;;;;;;;27.00;13.30;;;;;;;3.30;89.29;100963.78;105774;1303;58508;-78
2022/11/26 12:10:11;;;;;;;30.60;14.70;;;;;;;3.28;89.56;100964.89;105757;1295;60045;-78
2022/11/26 12:13:00;;;;;;;29.30;14.50;;;;;;;3.30;89.18;100966.22;105782;1293;73744;-79
2022/11/26 12:15:57;;;;;;;25.10;12.60;;;;;;;3.27;89.12;100965.11;105700;1290;67605;-78
2022/11/26 12:18:59;;;;;;;30.20;13.20;;;;;;;3.22;89.08;100965.95;105755;1291;72415;-78
2022/11/26 12:21:55;;;;;;;32.90;14.50;;;;;;;3.19;89.41;100969.73;105749;1295;57958;-78
2022/11/26 12:25:03;;;;;;;33.00;14.40;;;;;;;3.15;89.54;100967.08;105830;1295;59648;-78
2022/11/26 12:28:12;;;;;;;26.60;11.90;;;;;;;3.08;89.75;100971.67;104315;1285;1002403;-79
2022/11/26 12:31:29;;;;;;;29.40;14.50;;;;;;;3.02;90.28;100969.40;105716;1287;67381;-78
2022/11/26 12:34:37;;;;;;;25.70;11.10;;;;;;;2.98;90.56;100970.23;105791;1295;72708;-78
2022/11/26 12:37:31;;;;;;;26.10;11.80;;;;;;;2.95;90.97;100973.31;105725;1292;57880;-77
2022/11/26 12:40:37;;;;;;;25.10;11.30;;;;;;;2.93;91.38;100972.15;105693;1288;60680;-80
2022/11/26 12:43:47;;;;;;;26.00;12.00;;;;;;;2.90;91.97;100969.94;105787;1293;73534;-77
2022/11/26 12:47:12;;;;;;;29.70;13.50;;;;;;;2.88;92.34;100967.91;105650;1295;68134;-78
2022/11/26 12:50:29;;;;;;;28.90;14.30;;;;;;;2.84;92.43;100968.73;105762;1295;72486;-77
2022/11/26 12:53:46;;;;;;;25.90;12.90;;;;;;;2.82;92.85;100971.09;105755;1301;59619;-77
2022/11/26 12:56:58;;;;;;;21.90;11.10;;;;;;;2.81;93.10;100977.09;105791;1287;58797;-79
2022/11/26 13:00:13;;;;;;;29.60;15.20;;;;;;;2.80;93.34;100978.67;105765;1286;74708;-77
2022/11/26 13:03:05;;;;;;;27.00;13.90;;;;;;;2.84;93.36;100985.05;105734;1295;67798;-77
2022/11/26 13:06:25;;;;;;;28.10;14.20;;;;;;;2.87;93.60;100986.52;105673;1301;73761;-78
2022/11/26 13:09:52;;;;;;;25.90;13.50;;;;;;;2.91;93.34;100986.91;105652;1300;58029;-77